createdAt,value
2017-11-09T00:01:08.372Z,83.54
2017-11-09T00:03:34.651Z,83.97
2017-11-09T00:06:00.857Z,84.21
2017-11-09T00:08:27.094Z,84.33
2017-11-09T00:10:53.369Z,85.18
2017-11-09T00:13:19.610Z,84.61
2017-11-09T00:15:45.876Z,85.45
2017-11-09T00:18:12.192Z,84.60
2017-11-09T00:20:38.439Z,86.11
2017-11-09T00:23:04.684Z,84.69
2017-11-09T00:25:30.953Z,84.64
2017-11-09T00:27:57.181Z,84.06
2017-11-09T00:30:23.493Z,81.58
2017-11-09T00:32:49.722Z,83.31
2017-11-09T00:35:15.943Z,82.66
2017-11-09T00:37:42.185Z,83.72
2017-11-09T00:40:08.455Z,84.42
2017-11-09T00:42:34.688Z,84.06
2017-11-09T00:45:00.914Z,84.63
2017-11-09T00:47:27.209Z,84.70
2017-11-09T00:49:53.527Z,84.12
2017-11-09T00:52:19.754Z,84.54
2017-11-09T00:54:46.020Z,83.80
2017-11-09T00:57:12.273Z,83.60
2017-11-09T00:59:38.501Z,84.87
2017-11-09T01:02:04.768Z,83.27
2017-11-09T01:04:31.009Z,83.49
2017-11-09T01:06:57.241Z,83.78
2017-11-09T01:09:23.528Z,83.59
2017-11-09T01:11:49.762Z,84.04
2017-11-09T01:14:16.015Z,84.46
2017-11-09T01:16:42.295Z,84.61
2017-11-09T01:19:08.525Z,85.09
2017-11-09T01:21:34.736Z,84.24
2017-11-09T01:24:01.029Z,84.65
2017-11-09T01:26:27.266Z,84.33
2017-11-09T01:28:53.522Z,84.32
2017-11-09T01:31:19.794Z,84.38
2017-11-09T01:33:46.031Z,84.55
2017-11-09T01:36:12.304Z,84.00
2017-11-09T01:38:38.571Z,83.52
2017-11-09T01:41:04.808Z,82.86
2017-11-09T01:43:31.049Z,82.14
2017-11-09T01:45:57.333Z,82.06
2017-11-09T01:48:23.580Z,81.94
2017-11-09T01:50:49.817Z,82.16
2017-11-09T01:53:16.072Z,82.10
2017-11-09T01:55:42.315Z,81.53
2017-11-09T01:58:08.545Z,80.71
2017-11-09T02:00:34.808Z,80.55
2017-11-09T02:03:01.041Z,80.14
2017-11-09T02:05:27.273Z,80.17
2017-11-09T02:07:53.544Z,80.47
2017-11-09T02:10:19.872Z,80.23
2017-11-09T02:12:46.104Z,80.24
2017-11-09T02:15:12.373Z,80.32
2017-11-09T02:17:38.616Z,79.44
2017-11-09T02:20:04.841Z,79.47
2017-11-09T02:22:31.080Z,79.31
2017-11-09T02:24:57.347Z,79.14
2017-11-09T02:27:23.654Z,78.83
2017-11-09T02:29:49.894Z,78.83
2017-11-09T02:32:16.160Z,78.53
2017-11-09T02:34:42.382Z,78.82
2017-11-09T02:37:08.607Z,78.44
2017-11-09T02:39:34.870Z,78.16
2017-11-09T02:42:01.122Z,77.96
2017-11-09T02:44:27.359Z,78.05
2017-11-09T02:46:53.646Z,77.92
2017-11-09T02:49:19.888Z,77.98
2017-11-09T02:51:46.139Z,78.65
2017-11-09T02:54:12.407Z,78.24
2017-11-09T02:56:38.637Z,78.10
2017-11-09T02:59:04.871Z,78.79
2017-11-09T03:01:31.143Z,79.31
2017-11-09T03:03:57.386Z,79.30
2017-11-09T03:06:23.809Z,79.50
2017-11-09T03:08:50.161Z,79.92
2017-11-09T03:11:16.404Z,80.44
2017-11-09T03:13:42.651Z,81.02
2017-11-09T03:16:08.943Z,81.32
2017-11-09T03:18:35.304Z,81.62
2017-11-09T03:21:01.531Z,81.79
2017-11-09T03:23:27.799Z,82.49
2017-11-09T03:25:54.018Z,82.74
2017-11-09T03:28:20.247Z,83.27
2017-11-09T03:30:46.512Z,84.09
2017-11-09T03:33:12.764Z,84.82
2017-11-09T03:35:39.010Z,85.29
2017-11-09T03:38:05.276Z,85.38
2017-11-09T03:40:31.506Z,85.46
2017-11-09T03:42:57.729Z,85.68
2017-11-09T03:45:24.001Z,85.67
2017-11-09T03:47:50.230Z,85.80
2017-11-09T03:50:16.489Z,86.19
2017-11-09T03:52:42.770Z,86.09
2017-11-09T03:55:09.119Z,86.24
2017-11-09T03:57:35.349Z,86.63
2017-11-09T04:00:01.637Z,86.57
2017-11-09T04:02:27.886Z,86.27
2017-11-09T04:04:54.112Z,85.86
2017-11-09T04:07:20.353Z,85.58
2017-11-09T04:09:46.591Z,85.20
2017-11-09T04:12:12.957Z,84.94
2017-11-09T04:14:39.232Z,85.03
2017-11-09T04:17:05.466Z,84.85
2017-11-09T04:19:31.698Z,84.96
2017-11-09T04:21:57.967Z,85.27
2017-11-09T04:24:24.196Z,85.93
2017-11-09T04:26:50.440Z,87.06
2017-11-09T04:29:16.751Z,87.28
2017-11-09T04:31:42.982Z,87.12
2017-11-09T04:34:09.204Z,87.32
2017-11-09T04:36:35.474Z,86.68
2017-11-09T04:39:01.714Z,86.64
2017-11-09T04:41:27.963Z,86.46
2017-11-09T04:43:54.254Z,86.36
2017-11-09T04:46:20.503Z,86.35
2017-11-09T04:48:46.726Z,86.03
2017-11-09T04:51:13.009Z,85.92
2017-11-09T04:53:39.230Z,86.07
2017-11-09T04:56:05.465Z,85.92
2017-11-09T04:58:31.760Z,86.01
2017-11-09T05:00:58.004Z,86.10
2017-11-09T05:03:24.230Z,86.02
2017-11-09T05:05:50.504Z,86.06
2017-11-09T05:08:16.732Z,86.07
2017-11-09T05:10:42.968Z,86.12
2017-11-09T05:13:09.239Z,86.67
2017-11-09T05:15:35.488Z,87.43
2017-11-09T05:18:01.738Z,87.62
2017-11-09T05:20:28.033Z,87.62
2017-11-09T05:22:54.262Z,87.63
2017-11-09T05:25:20.500Z,87.72
2017-11-09T05:27:46.783Z,87.98
2017-11-09T05:30:13.001Z,87.29
2017-11-09T05:32:39.242Z,87.03
2017-11-09T05:35:05.525Z,86.59
2017-11-09T05:37:31.771Z,86.39
2017-11-09T05:39:58.039Z,86.12
2017-11-09T05:42:24.305Z,85.72
2017-11-09T05:44:50.551Z,85.04
2017-11-09T05:47:16.801Z,84.75
2017-11-09T05:49:43.085Z,84.77
2017-11-09T05:52:09.321Z,85.25
2017-11-09T05:54:35.549Z,85.90
2017-11-09T05:57:01.898Z,85.88
2017-11-09T05:59:28.127Z,86.09
2017-11-09T06:01:54.371Z,85.84
2017-11-09T06:04:20.605Z,86.67
2017-11-09T06:06:46.840Z,87.11
2017-11-09T06:09:13.117Z,87.93
2017-11-09T06:11:39.353Z,88.40
2017-11-09T06:14:05.708Z,88.30
2017-11-09T06:16:31.986Z,88.52
2017-11-09T06:18:58.193Z,88.92
2017-11-09T06:21:24.466Z,88.96
2017-11-09T06:23:50.792Z,89.07
2017-11-09T06:26:17.189Z,88.71
2017-11-09T06:28:43.416Z,88.19
2017-11-09T06:31:09.709Z,87.48
2017-11-09T06:33:35.932Z,86.81
2017-11-09T06:36:02.182Z,86.16
2017-11-09T06:38:28.468Z,85.54
2017-11-09T06:40:54.755Z,85.49
2017-11-09T06:43:21.151Z,85.12
2017-11-09T06:45:47.417Z,85.53
2017-11-09T06:48:13.744Z,85.19
2017-11-09T06:50:39.987Z,85.18
2017-11-09T06:53:06.260Z,84.26
2017-11-09T06:55:32.600Z,83.32
2017-11-09T06:57:58.840Z,83.65
2017-11-09T07:00:25.091Z,83.95
2017-11-09T07:02:51.313Z,82.95
2017-11-09T07:05:17.557Z,83.21
2017-11-09T07:07:43.837Z,83.03
2017-11-09T07:10:10.216Z,83.59
2017-11-09T07:12:36.463Z,84.36
2017-11-09T07:15:02.786Z,84.66
2017-11-09T07:17:29.032Z,84.80
2017-11-09T07:19:55.279Z,83.42
2017-11-09T07:22:21.543Z,81.73
2017-11-09T07:24:47.772Z,81.57
2017-11-09T07:27:14.006Z,80.90
2017-11-09T07:29:40.305Z,80.16
2017-11-09T07:32:06.529Z,80.08
2017-11-09T07:34:32.767Z,79.38
2017-11-09T07:36:59.076Z,79.92
2017-11-09T07:39:25.308Z,78.46
2017-11-09T07:41:51.535Z,77.17
2017-11-09T07:44:17.804Z,77.18
2017-11-09T07:46:44.056Z,76.73
2017-11-09T07:49:10.306Z,76.12
2017-11-09T07:51:36.591Z,74.94
2017-11-09T07:54:02.948Z,75.10
2017-11-09T07:56:29.184Z,74.25
2017-11-09T07:58:55.469Z,73.47
2017-11-09T08:01:21.729Z,72.11
2017-11-09T08:03:47.976Z,70.39
2017-11-09T08:06:14.288Z,69.28
2017-11-09T08:08:40.552Z,67.97
2017-11-09T08:11:06.798Z,67.91
2017-11-09T08:13:33.182Z,66.60
2017-11-09T08:15:59.477Z,64.55
2017-11-09T08:18:25.736Z,63.88
2017-11-09T08:20:52.038Z,62.36
2017-11-09T08:23:18.420Z,62.17
2017-11-09T08:25:44.654Z,62.60
2017-11-09T08:28:10.959Z,61.12
2017-11-09T08:30:37.187Z,58.39
2017-11-09T08:33:03.455Z,56.60
2017-11-09T08:35:29.736Z,55.06
2017-11-09T08:37:55.975Z,52.30
2017-11-09T08:40:22.219Z,51.25
2017-11-09T08:42:48.505Z,53.67
2017-11-09T08:45:14.754Z,54.98
2017-11-09T08:47:40.993Z,55.80
2017-11-09T08:50:07.271Z,58.05
2017-11-09T08:52:33.514Z,59.49
2017-11-09T08:54:59.753Z,61.52
2017-11-09T08:57:26.042Z,63.08
2017-11-09T08:59:52.291Z,63.76
2017-11-09T09:02:18.531Z,64.91
2017-11-09T09:04:44.801Z,65.58
2017-11-09T09:07:11.030Z,67.52
2017-11-09T09:09:37.303Z,68.15
2017-11-09T09:12:03.594Z,68.07
2017-11-09T09:14:29.841Z,67.34
2017-11-09T09:16:56.078Z,67.12
2017-11-09T09:19:22.357Z,67.09
2017-11-09T09:21:48.606Z,66.74
2017-11-09T09:24:14.836Z,67.77
2017-11-09T09:26:41.117Z,67.57
2017-11-09T09:29:07.380Z,67.21
2017-11-09T09:31:33.612Z,66.95
2017-11-09T09:33:59.887Z,66.37
2017-11-09T09:36:26.285Z,65.22
2017-11-09T09:38:52.534Z,68.01
2017-11-09T09:41:18.792Z,65.38
2017-11-09T09:43:45.178Z,65.35
2017-11-09T09:46:11.409Z,66.10
2017-11-09T09:48:37.657Z,64.42
2017-11-09T09:51:03.925Z,63.07
2017-11-09T09:53:30.292Z,62.21
2017-11-09T09:55:56.517Z,62.55
2017-11-09T09:58:22.801Z,61.94
2017-11-09T10:00:49.053Z,59.65
2017-11-09T10:03:15.420Z,58.45
2017-11-09T10:05:41.689Z,60.51
2017-11-09T10:08:07.921Z,59.64
2017-11-09T10:10:34.168Z,58.68
2017-11-09T10:13:00.446Z,61.25
2017-11-09T10:15:26.684Z,61.34
2017-11-09T10:17:52.919Z,59.94
2017-11-09T10:20:19.193Z,58.85
2017-11-09T10:22:45.552Z,58.74
2017-11-09T10:25:11.809Z,57.14
2017-11-09T10:27:38.105Z,58.38
2017-11-09T10:30:04.337Z,57.91
2017-11-09T10:32:30.541Z,53.19
2017-11-09T10:34:56.844Z,48.88
2017-11-09T10:37:23.070Z,45.04
2017-11-09T10:39:49.322Z,44.21
2017-11-09T10:42:15.601Z,44.70
2017-11-09T10:44:41.847Z,46.00
2017-11-09T10:47:08.080Z,44.93
2017-11-09T10:49:34.353Z,41.94
2017-11-09T10:52:00.601Z,39.59
2017-11-09T10:54:26.861Z,38.33
2017-11-09T10:56:53.136Z,37.93
2017-11-09T10:59:19.372Z,39.34
2017-11-09T11:01:45.624Z,40.41
2017-11-09T11:04:11.913Z,43.74
2017-11-09T11:06:38.151Z,44.15
2017-11-09T11:09:04.388Z,45.53
2017-11-09T11:11:30.661Z,47.44
2017-11-09T11:13:56.921Z,50.02
2017-11-09T11:16:23.163Z,51.43
2017-11-09T11:18:49.435Z,52.26
2017-11-09T11:21:15.681Z,55.03
2017-11-09T11:23:41.934Z,55.04
2017-11-09T11:26:08.228Z,56.24
2017-11-09T11:28:34.468Z,57.04
2017-11-09T11:31:00.712Z,60.15
2017-11-09T11:33:26.996Z,59.41
2017-11-09T11:35:53.228Z,59.37
2017-11-09T11:38:19.561Z,59.97
2017-11-09T11:40:45.855Z,59.93
2017-11-09T11:43:12.096Z,59.93
2017-11-09T11:45:38.329Z,61.05
2017-11-09T11:48:04.598Z,62.38
2017-11-09T11:50:30.842Z,62.98
2017-11-09T11:52:57.072Z,63.31
2017-11-09T11:55:23.348Z,63.13
2017-11-09T11:57:49.595Z,63.14
2017-11-09T12:00:15.841Z,63.59
2017-11-09T12:02:42.125Z,64.98
2017-11-09T12:05:08.343Z,64.70
2017-11-09T12:07:34.582Z,65.30
2017-11-09T12:10:00.871Z,65.19
2017-11-09T12:12:27.211Z,64.80
2017-11-09T12:14:53.464Z,65.11
2017-11-09T12:17:19.741Z,64.52
2017-11-09T12:19:45.978Z,64.48
2017-11-09T12:22:12.225Z,64.07
2017-11-09T12:24:38.515Z,65.51
2017-11-09T12:27:04.751Z,64.24
2017-11-09T12:29:30.988Z,64.94
2017-11-09T12:31:57.279Z,65.03
2017-11-09T12:34:23.533Z,65.06
2017-11-09T12:36:49.856Z,65.49
2017-11-09T12:39:16.136Z,66.17
2017-11-09T12:41:42.386Z,65.95
2017-11-09T12:44:08.646Z,65.29
2017-11-09T12:46:34.927Z,63.46
2017-11-09T12:49:01.162Z,62.58
2017-11-09T12:51:27.398Z,61.21
2017-11-09T12:53:53.667Z,60.70
2017-11-09T12:56:19.902Z,60.77
2017-11-09T12:58:46.129Z,62.38
2017-11-09T13:01:12.387Z,63.00
2017-11-09T13:03:38.604Z,63.80
2017-11-09T13:06:04.819Z,63.38
2017-11-09T13:08:31.092Z,63.56
2017-11-09T13:10:57.475Z,64.51
2017-11-09T13:13:23.713Z,64.49
2017-11-09T13:15:49.994Z,65.46
2017-11-09T13:18:16.360Z,65.98
2017-11-09T13:20:42.599Z,66.51
2017-11-09T13:23:08.876Z,66.15
2017-11-09T13:25:35.122Z,66.03
2017-11-09T13:28:01.362Z,66.84
2017-11-09T13:30:27.661Z,68.09
2017-11-09T13:32:53.894Z,68.55
2017-11-09T13:35:20.152Z,68.37
2017-11-09T13:37:46.414Z,68.71
2017-11-09T13:40:12.656Z,68.95
2017-11-09T13:42:38.893Z,69.43
2017-11-09T13:45:05.200Z,70.57
2017-11-09T13:47:31.440Z,70.76
2017-11-09T13:49:57.688Z,70.57
2017-11-09T13:52:23.977Z,70.64
2017-11-09T13:54:50.214Z,70.65
2017-11-09T13:57:16.442Z,70.78
2017-11-09T13:59:42.707Z,70.23
2017-11-09T14:02:08.946Z,70.45
2017-11-09T14:04:35.176Z,70.07
2017-11-09T14:07:01.443Z,70.56
2017-11-09T14:09:27.684Z,71.45
2017-11-09T14:11:53.911Z,71.76
2017-11-09T14:14:20.224Z,73.12
2017-11-09T14:16:46.561Z,72.90
2017-11-09T14:19:12.793Z,73.47
2017-11-09T14:21:39.074Z,73.88
2017-11-09T14:24:05.290Z,75.16
2017-11-09T14:26:31.535Z,75.73
2017-11-09T14:28:57.816Z,76.19
2017-11-09T14:31:24.297Z,75.91
2017-11-09T14:33:50.738Z,76.56
2017-11-09T14:36:17.415Z,76.48
2017-11-09T14:38:44.048Z,76.33
2017-11-09T14:41:10.440Z,76.52
2017-11-09T14:43:36.881Z,75.87
2017-11-09T14:46:03.302Z,75.63
2017-11-09T14:48:29.589Z,76.00
2017-11-09T14:50:56.016Z,75.76
2017-11-09T14:53:22.660Z,75.56
2017-11-09T14:55:49.267Z,75.74
2017-11-09T14:58:15.929Z,75.53
2017-11-09T15:00:42.551Z,75.32
2017-11-09T15:03:09.003Z,75.36
2017-11-09T15:05:35.510Z,75.66
2017-11-09T15:08:01.927Z,75.77
2017-11-09T15:10:28.345Z,76.24
2017-11-09T15:12:54.766Z,76.56
2017-11-09T15:15:21.352Z,76.65
2017-11-09T15:17:47.608Z,76.78
2017-11-09T15:20:14.241Z,76.96
2017-11-09T15:22:40.857Z,76.48
2017-11-09T15:25:07.106Z,76.35
2017-11-09T15:27:33.748Z,76.72
2017-11-09T15:30:00.255Z,77.03
2017-11-09T15:32:26.670Z,77.44
2017-11-09T15:34:53.114Z,77.50
2017-11-09T15:37:19.479Z,77.91
2017-11-09T15:39:46.097Z,77.40
2017-11-09T15:42:12.753Z,77.55
2017-11-09T15:44:39.192Z,77.42
2017-11-09T15:47:05.637Z,77.71
2017-11-09T15:49:32.216Z,77.45
2017-11-09T15:51:58.655Z,77.48
2017-11-09T15:54:25.077Z,77.62
2017-11-09T15:56:51.540Z,77.52
2017-11-09T15:59:17.959Z,77.53
2017-11-09T16:01:44.229Z,77.46
2017-11-09T16:04:10.500Z,77.81
2017-11-09T16:06:37.086Z,77.80
2017-11-09T16:09:03.529Z,77.23
2017-11-09T16:11:30.142Z,77.88
2017-11-09T16:13:56.422Z,78.16
2017-11-09T16:16:23.024Z,78.57
2017-11-09T16:18:49.519Z,78.64
2017-11-09T16:21:16.098Z,78.63
2017-11-09T16:23:42.728Z,79.17
2017-11-09T16:26:09.373Z,78.92
2017-11-09T16:28:35.860Z,79.24
2017-11-09T16:31:02.301Z,78.95
2017-11-09T16:33:28.843Z,79.18
2017-11-09T16:35:55.287Z,79.04
2017-11-09T16:38:21.706Z,79.20
2017-11-09T16:40:48.096Z,79.07
2017-11-09T16:43:14.398Z,78.99
2017-11-09T16:45:40.808Z,79.20
2017-11-09T16:48:07.482Z,79.11
2017-11-09T16:50:34.117Z,79.04
2017-11-09T16:53:00.633Z,79.09
2017-11-09T16:55:27.145Z,79.29
2017-11-09T16:57:53.422Z,79.36
2017-11-09T17:00:19.930Z,79.77
2017-11-09T17:02:46.349Z,79.99
2017-11-09T17:05:12.769Z,79.57
2017-11-09T17:07:39.355Z,79.53
2017-11-09T17:10:05.873Z,79.61
2017-11-09T17:12:32.291Z,79.49
2017-11-09T17:14:58.808Z,79.25
2017-11-09T17:17:25.088Z,79.77
2017-11-09T17:19:51.593Z,79.51
2017-11-09T17:22:17.956Z,79.51
2017-11-09T17:24:44.351Z,79.87
2017-11-09T17:27:10.823Z,79.58
2017-11-09T17:29:37.309Z,79.51
2017-11-09T17:32:03.752Z,78.91
2017-11-09T17:34:30.194Z,79.03
2017-11-09T17:36:56.611Z,79.01
2017-11-09T17:39:23.053Z,79.17
2017-11-09T17:41:49.470Z,79.27
2017-11-09T17:44:15.912Z,79.73
2017-11-09T17:46:42.450Z,79.94
2017-11-09T17:49:08.795Z,79.95
2017-11-09T17:51:35.214Z,79.97
2017-11-09T17:54:01.620Z,79.92
2017-11-09T17:56:28.227Z,79.89
2017-11-09T17:58:54.811Z,79.89
2017-11-09T18:01:21.479Z,79.70
2017-11-09T18:03:47.921Z,79.87
2017-11-09T18:06:14.365Z,79.82
2017-11-09T18:08:40.854Z,79.95
2017-11-09T18:11:07.309Z,79.76
2017-11-09T18:13:33.684Z,79.90
2017-11-09T18:16:00.310Z,79.86
2017-11-09T18:18:26.800Z,79.99
2017-11-09T18:20:53.178Z,80.05
2017-11-09T18:23:19.817Z,79.87
2017-11-09T18:25:46.529Z,79.90
2017-11-09T18:28:12.942Z,79.97
2017-11-09T18:30:39.487Z,79.96
2017-11-09T18:33:05.952Z,80.01
2017-11-09T18:35:32.566Z,80.03
2017-11-09T18:37:59.217Z,80.09
2017-11-09T18:40:25.463Z,80.47
2017-11-09T18:42:52.093Z,80.61
2017-11-09T18:45:18.606Z,80.88
2017-11-09T18:47:45.128Z,81.04
2017-11-09T18:50:11.402Z,81.41
2017-11-09T18:52:38.039Z,81.82
2017-11-09T18:55:04.268Z,82.35
2017-11-09T18:57:30.769Z,82.72
2017-11-09T18:59:57.187Z,83.22
2017-11-09T19:02:23.467Z,83.73
2017-11-09T19:04:49.915Z,84.30
2017-11-09T19:07:16.511Z,84.84
2017-11-09T19:09:42.929Z,85.56
2017-11-09T19:12:09.270Z,86.02
2017-11-09T19:14:35.668Z,86.69
2017-11-09T19:17:02.273Z,86.80
2017-11-09T19:19:28.797Z,87.50
2017-11-09T19:21:55.315Z,87.47
2017-11-09T19:24:21.753Z,87.70
2017-11-09T19:26:48.175Z,88.26
2017-11-09T19:29:14.852Z,88.71
2017-11-09T19:31:41.487Z,88.70
2017-11-09T19:34:07.713Z,88.50
2017-11-09T19:36:34.151Z,88.31
2017-11-09T19:39:00.783Z,87.08
2017-11-09T19:41:27.418Z,87.17
2017-11-09T19:43:53.858Z,87.11
2017-11-09T19:46:20.497Z,87.15
2017-11-09T19:48:47.021Z,86.98
2017-11-09T19:51:13.414Z,86.78
2017-11-09T19:53:40.001Z,86.72
2017-11-09T19:56:06.404Z,86.43
2017-11-09T19:58:32.849Z,86.25
2017-11-09T20:00:59.503Z,86.33
2017-11-09T20:03:26.151Z,86.57
2017-11-09T20:05:52.583Z,87.20
2017-11-09T20:08:18.998Z,87.29
2017-11-09T20:10:45.454Z,87.73
2017-11-09T20:13:12.063Z,88.13
2017-11-09T20:15:38.683Z,88.11
2017-11-09T20:18:05.103Z,88.43
2017-11-09T20:20:31.545Z,89.07
2017-11-09T20:22:57.964Z,89.08
2017-11-09T20:25:24.331Z,88.99
2017-11-09T20:27:50.683Z,88.97
2017-11-09T20:30:17.328Z,88.95
2017-11-09T20:32:43.743Z,88.96
2017-11-09T20:35:09.974Z,89.26
2017-11-09T20:37:36.445Z,88.86
2017-11-09T20:40:03.019Z,88.69
2017-11-09T20:42:29.694Z,88.80
2017-11-09T20:44:56.132Z,88.58
2017-11-09T20:47:22.557Z,87.97
2017-11-09T20:49:49.178Z,87.51
2017-11-09T20:52:15.597Z,87.24
2017-11-09T20:54:41.847Z,87.23
2017-11-09T20:57:08.187Z,87.51
2017-11-09T20:59:34.616Z,87.68
2017-11-09T21:02:00.850Z,87.60
2017-11-09T21:04:27.115Z,87.27
2017-11-09T21:06:53.344Z,87.15
2017-11-09T21:09:19.573Z,87.15
2017-11-09T21:11:45.843Z,87.44
2017-11-09T21:14:12.090Z,87.37
2017-11-09T21:16:38.433Z,87.54
2017-11-09T21:19:04.696Z,87.60
2017-11-09T21:21:30.921Z,87.38
2017-11-09T21:23:57.146Z,87.16
2017-11-09T21:26:23.445Z,86.85
2017-11-09T21:28:52.521Z,86.59
2017-11-09T21:31:18.782Z,87.14
2017-11-09T21:33:45.059Z,87.01
2017-11-09T21:36:11.277Z,86.39
2017-11-09T21:38:37.659Z,86.72
2017-11-09T21:41:04.159Z,87.08
2017-11-09T21:43:30.389Z,86.92
2017-11-09T21:45:56.946Z,86.66
2017-11-09T21:48:23.605Z,86.62
2017-11-09T21:50:50.231Z,86.63
2017-11-09T21:53:16.727Z,86.74
2017-11-09T21:55:43.110Z,87.46
2017-11-09T21:58:09.486Z,88.27
2017-11-09T22:00:35.935Z,88.23
2017-11-09T22:03:02.221Z,88.65
2017-11-09T22:05:28.457Z,88.55
2017-11-09T22:07:54.666Z,88.08
2017-11-09T22:10:20.939Z,87.81
2017-11-09T22:12:47.303Z,87.60
2017-11-09T22:15:13.551Z,87.35
2017-11-09T22:17:39.792Z,86.75
2017-11-09T22:20:06.022Z,86.61
2017-11-09T22:22:32.239Z,86.65
2017-11-09T22:24:58.517Z,86.44
2017-11-09T22:27:24.764Z,86.47
2017-11-09T22:29:50.982Z,86.16
2017-11-09T22:32:17.247Z,86.47
2017-11-09T22:34:43.472Z,86.61
2017-11-09T22:37:09.715Z,86.86
2017-11-09T22:39:35.984Z,87.06
2017-11-09T22:42:02.214Z,87.49
2017-11-09T22:44:28.426Z,88.10
2017-11-09T22:46:54.707Z,87.90
2017-11-09T22:49:20.918Z,88.47
2017-11-09T22:51:47.162Z,89.22
2017-11-09T22:54:13.441Z,89.45
2017-11-09T22:56:39.667Z,89.96
2017-11-09T22:59:05.885Z,90.18
2017-11-09T23:01:32.143Z,90.44
2017-11-09T23:03:58.384Z,90.57
2017-11-09T23:06:24.768Z,90.70
2017-11-09T23:08:51.051Z,91.22
2017-11-09T23:11:17.409Z,91.28
2017-11-09T23:13:43.635Z,91.12
2017-11-09T23:16:10.078Z,91.13
2017-11-09T23:18:36.303Z,91.27
2017-11-09T23:21:02.544Z,91.46
2017-11-09T23:23:28.847Z,91.88
2017-11-09T23:25:55.074Z,91.80
2017-11-09T23:28:21.421Z,91.78
2017-11-09T23:30:47.687Z,91.86
2017-11-09T23:33:13.971Z,91.39
2017-11-09T23:35:40.203Z,91.20
2017-11-09T23:38:06.461Z,91.13
2017-11-09T23:40:32.684Z,91.54
2017-11-09T23:42:59.014Z,91.25
2017-11-09T23:45:25.288Z,91.16
2017-11-09T23:47:51.502Z,90.95
2017-11-09T23:50:17.724Z,91.24
2017-11-09T23:52:43.979Z,91.29
2017-11-09T23:55:10.237Z,91.13
2017-11-09T23:57:36.451Z,90.99
